createdAt,value
2019-03-17T00:01:27.758Z,21.83
2019-03-17T00:03:35.165Z,17.93
2019-03-17T00:05:42.514Z,15.07
2019-03-17T00:07:49.979Z,20.70
2019-03-17T00:09:57.310Z,21.50
2019-03-17T00:12:04.627Z,25.20
2019-03-17T00:14:12.108Z,20.83
2019-03-17T00:16:19.457Z,24.23
2019-03-17T00:18:26.844Z,31.80
2019-03-17T00:20:34.285Z,33.87
2019-03-17T00:22:41.663Z,38.13
2019-03-17T00:24:49.223Z,30.03
2019-03-17T00:26:56.599Z,21.13
2019-03-17T00:29:03.878Z,24.83
2019-03-17T00:31:22.867Z,27.43
2019-03-17T00:33:20.384Z,21.57
2019-03-17T00:35:27.747Z,25.13
2019-03-17T00:37:35.120Z,26.63
2019-03-17T00:39:42.484Z,21.70
2019-03-17T00:41:49.834Z,23.13
2019-03-17T00:43:57.214Z,22.30
2019-03-17T00:46:04.710Z,22.20
2019-03-17T00:48:12.043Z,21.17
2019-03-17T00:50:19.406Z,20.03
2019-03-17T00:52:26.716Z,23.97
2019-03-17T00:54:34.060Z,23.83
2019-03-17T00:56:41.375Z,17.23
2019-03-17T00:58:48.768Z,23.50
2019-03-17T01:00:56.157Z,16.93
2019-03-17T01:03:03.560Z,17.57
2019-03-17T01:05:11.328Z,22.43
2019-03-17T01:07:18.657Z,23.83
2019-03-17T01:09:25.993Z,19.03
2019-03-17T01:11:33.472Z,19.83
2019-03-17T01:13:40.889Z,25.13
2019-03-17T01:15:48.308Z,32.03
2019-03-17T01:17:55.650Z,30.90
2019-03-17T01:20:03.009Z,28.60
2019-03-17T01:22:10.452Z,21.77
2019-03-17T01:24:17.790Z,17.40
2019-03-17T01:26:25.088Z,21.07
2019-03-17T01:28:32.520Z,25.20
2019-03-17T01:30:39.948Z,17.00
2019-03-17T01:32:47.261Z,20.83
2019-03-17T01:34:54.661Z,22.53
2019-03-17T01:37:02.041Z,26.90
2019-03-17T01:39:09.991Z,20.63
2019-03-17T01:41:17.306Z,20.93
2019-03-17T01:43:24.687Z,25.10
2019-03-17T01:45:32.072Z,16.70
2019-03-17T01:47:39.296Z,18.50
2019-03-17T01:49:46.687Z,15.40
2019-03-17T01:51:54.003Z,20.77
2019-03-17T01:54:01.414Z,14.47
2019-03-17T01:56:08.757Z,17.67
2019-03-17T01:58:16.131Z,20.33
2019-03-17T02:00:23.447Z,19.33
2019-03-17T02:02:30.765Z,14.57
2019-03-17T02:04:38.748Z,21.97
2019-03-17T02:06:46.118Z,26.63
2019-03-17T02:08:54.393Z,16.93
2019-03-17T02:11:01.701Z,19.63
2019-03-17T02:13:09.031Z,21.83
2019-03-17T02:15:16.495Z,20.77
2019-03-17T02:17:23.861Z,20.13
2019-03-17T02:19:31.203Z,21.07
2019-03-17T02:21:38.594Z,21.43
2019-03-17T02:23:46.006Z,19.33
2019-03-17T02:25:53.680Z,17.17
2019-03-17T02:28:00.905Z,18.30
2019-03-17T02:30:09.168Z,18.97
2019-03-17T02:32:16.606Z,22.50
2019-03-17T02:34:23.934Z,18.23
2019-03-17T02:36:31.273Z,15.53
2019-03-17T02:38:38.585Z,16.23
2019-03-17T02:40:45.981Z,17.40
2019-03-17T02:42:53.238Z,20.40
2019-03-17T02:45:00.743Z,20.73
2019-03-17T02:47:08.100Z,17.93
2019-03-17T02:49:15.435Z,21.33
2019-03-17T02:51:22.823Z,23.33
2019-03-17T02:53:30.237Z,25.53
2019-03-17T02:55:37.684Z,21.27
2019-03-17T02:57:44.979Z,25.43
2019-03-17T02:59:52.398Z,24.47
2019-03-17T03:01:59.798Z,20.90
2019-03-17T03:04:07.140Z,27.97
2019-03-17T03:06:14.569Z,25.87
2019-03-17T03:08:21.900Z,25.83
2019-03-17T03:10:31.762Z,27.27
2019-03-17T03:12:38.347Z,30.07
2019-03-17T03:14:45.694Z,35.83
2019-03-17T03:16:53.096Z,23.53
2019-03-17T03:19:00.486Z,26.20
2019-03-17T03:21:07.814Z,29.87
2019-03-17T03:23:15.241Z,31.77
2019-03-17T03:25:22.631Z,30.57
2019-03-17T03:27:29.993Z,26.17
2019-03-17T03:29:37.329Z,24.50
2019-03-17T03:31:44.683Z,27.23
2019-03-17T03:33:52.389Z,29.13
2019-03-17T03:36:10.615Z,24.33
2019-03-17T03:38:08.741Z,25.13
2019-03-17T03:40:16.243Z,28.87
2019-03-17T03:42:24.132Z,34.00
2019-03-17T03:44:31.458Z,31.20
2019-03-17T03:46:38.791Z,26.17
2019-03-17T03:48:46.103Z,26.60
2019-03-17T03:50:53.522Z,23.83
2019-03-17T03:53:02.082Z,24.63
2019-03-17T03:55:09.541Z,26.60
2019-03-17T03:57:16.839Z,24.83
2019-03-17T03:59:24.207Z,26.37
2019-03-17T04:01:31.717Z,25.77
2019-03-17T04:03:39.058Z,30.27
2019-03-17T04:05:46.390Z,26.77
2019-03-17T04:07:53.741Z,24.80
2019-03-17T04:10:01.083Z,27.47
2019-03-17T04:12:08.451Z,22.57
2019-03-17T04:14:15.817Z,26.97
2019-03-17T04:16:23.257Z,25.60
2019-03-17T04:18:30.590Z,23.70
2019-03-17T04:20:37.924Z,23.57
2019-03-17T04:22:45.347Z,25.60
2019-03-17T04:24:52.655Z,27.03
2019-03-17T04:27:00.004Z,22.80
2019-03-17T04:29:07.372Z,26.20
2019-03-17T04:31:14.919Z,23.90
2019-03-17T04:33:22.248Z,25.00
2019-03-17T04:35:29.549Z,28.20
2019-03-17T04:37:36.930Z,29.07
2019-03-17T04:39:44.253Z,25.57
2019-03-17T04:41:51.641Z,23.97
2019-03-17T04:43:59.087Z,26.30
2019-03-17T04:46:06.520Z,22.63
2019-03-17T04:48:13.925Z,22.60
2019-03-17T04:50:21.266Z,23.37
2019-03-17T04:52:28.547Z,25.27
2019-03-17T04:54:35.901Z,26.13
2019-03-17T04:56:43.228Z,25.87
2019-03-17T04:58:50.619Z,24.27
2019-03-17T05:00:57.987Z,23.93
2019-03-17T05:03:05.317Z,24.00
2019-03-17T05:05:12.804Z,23.90
2019-03-17T05:07:20.167Z,22.93
2019-03-17T05:09:27.568Z,23.13
2019-03-17T05:11:35.960Z,25.80
2019-03-17T05:13:43.426Z,24.53
2019-03-17T05:15:50.833Z,24.83
2019-03-17T05:17:58.276Z,26.73
2019-03-17T05:20:06.288Z,25.70
2019-03-17T05:22:13.685Z,28.30
2019-03-17T05:24:21.077Z,32.40
2019-03-17T05:26:28.436Z,27.80
2019-03-17T05:28:35.868Z,25.93
2019-03-17T05:30:43.413Z,24.53
2019-03-17T05:32:50.889Z,29.10
2019-03-17T05:34:58.274Z,25.80
2019-03-17T05:37:06.970Z,22.33
2019-03-17T05:39:14.614Z,25.67
2019-03-17T05:41:22.022Z,22.57
2019-03-17T05:43:29.430Z,23.40
2019-03-17T05:45:36.918Z,23.63
2019-03-17T05:47:44.419Z,23.10
2019-03-17T05:49:51.878Z,29.40
2019-03-17T05:51:59.224Z,23.90
2019-03-17T05:54:06.760Z,29.63
2019-03-17T05:56:14.208Z,29.83
2019-03-17T05:58:21.708Z,27.53
2019-03-17T06:00:29.199Z,27.30
2019-03-17T06:02:36.700Z,28.93
2019-03-17T06:04:44.185Z,28.80
2019-03-17T06:06:51.615Z,27.60
2019-03-17T06:08:59.056Z,29.37
2019-03-17T06:11:06.474Z,29.73
2019-03-17T06:13:13.849Z,24.70
2019-03-17T06:15:21.361Z,32.27
2019-03-17T06:17:28.758Z,25.30
2019-03-17T06:19:36.132Z,31.03
2019-03-17T06:21:43.536Z,29.87
2019-03-17T06:23:50.909Z,28.83
2019-03-17T06:25:58.494Z,30.00
2019-03-17T06:28:05.939Z,27.93
2019-03-17T06:30:13.553Z,29.27
2019-03-17T06:32:21.222Z,23.87
2019-03-17T06:34:28.823Z,27.97
2019-03-17T06:36:36.229Z,25.97
2019-03-17T06:38:46.739Z,31.27
2019-03-17T06:40:54.602Z,26.33
2019-03-17T06:43:02.158Z,27.70
2019-03-17T06:45:10.158Z,37.57
2019-03-17T06:47:17.659Z,28.80
2019-03-17T06:49:25.305Z,33.00
2019-03-17T06:51:33.952Z,29.03
2019-03-17T06:53:41.665Z,27.27
2019-03-17T06:55:49.129Z,30.90
2019-03-17T06:57:56.698Z,28.87
2019-03-17T07:00:04.187Z,28.80
2019-03-17T07:02:11.600Z,30.27
2019-03-17T07:04:19.355Z,30.47
2019-03-17T07:06:26.753Z,29.40
2019-03-17T07:08:34.203Z,28.53
2019-03-17T07:10:41.738Z,28.50
2019-03-17T07:12:49.356Z,28.23
2019-03-17T07:14:57.340Z,28.00
2019-03-17T07:17:04.841Z,28.67
2019-03-17T07:19:14.459Z,27.13
2019-03-17T07:21:22.392Z,24.73
2019-03-17T07:23:29.971Z,25.57
2019-03-17T07:25:37.430Z,24.97
2019-03-17T07:27:45.001Z,30.03
2019-03-17T07:29:52.506Z,22.77
2019-03-17T07:31:59.983Z,25.27
2019-03-17T07:34:07.554Z,25.00
2019-03-17T07:36:15.067Z,21.87
2019-03-17T07:38:22.521Z,25.20
2019-03-17T07:40:30.044Z,24.87
2019-03-17T07:42:37.615Z,23.33
2019-03-17T07:44:45.109Z,21.90
2019-03-17T07:46:52.501Z,23.17
2019-03-17T07:48:59.959Z,21.60
2019-03-17T07:51:07.518Z,25.73
2019-03-17T07:53:16.436Z,21.60
2019-03-17T07:55:23.893Z,19.27
2019-03-17T07:57:31.379Z,20.03
2019-03-17T07:59:38.767Z,20.40
2019-03-17T08:01:46.191Z,21.93
2019-03-17T08:03:54.717Z,22.70
2019-03-17T08:06:03.044Z,19.33
2019-03-17T08:08:10.657Z,24.53
2019-03-17T08:10:18.176Z,24.77
2019-03-17T08:12:25.771Z,26.17
2019-03-17T08:14:33.446Z,25.17
2019-03-17T08:16:41.107Z,19.87
2019-03-17T08:18:48.686Z,20.90
2019-03-17T08:20:56.368Z,29.40
2019-03-17T08:23:03.730Z,26.50
2019-03-17T08:25:11.386Z,19.43
2019-03-17T08:27:18.790Z,19.03
2019-03-17T08:29:26.120Z,20.83
2019-03-17T08:31:34.511Z,18.30
2019-03-17T08:33:41.918Z,20.17
2019-03-17T08:35:49.405Z,20.73
2019-03-17T08:37:56.988Z,23.33
2019-03-17T08:40:05.084Z,19.57
2019-03-17T08:42:12.506Z,23.03
2019-03-17T08:44:19.963Z,20.07
2019-03-17T08:46:27.407Z,28.90
2019-03-17T08:48:34.988Z,19.73
2019-03-17T08:50:42.599Z,22.27
2019-03-17T08:52:50.334Z,22.53
2019-03-17T08:54:58.116Z,19.93
2019-03-17T08:57:05.736Z,19.47
2019-03-17T08:59:13.475Z,27.07
2019-03-17T09:01:20.994Z,17.30
2019-03-17T09:03:34.042Z,29.27
2019-03-17T09:05:44.750Z,18.57
2019-03-17T09:07:52.234Z,16.70
2019-03-17T09:09:59.818Z,14.53
2019-03-17T09:12:07.445Z,19.00
2019-03-17T09:14:15.120Z,14.60
2019-03-17T09:16:22.751Z,21.30
2019-03-17T09:18:30.612Z,17.30
2019-03-17T09:20:38.674Z,15.67
2019-03-17T09:22:46.317Z,15.70
2019-03-17T09:24:53.796Z,14.63
2019-03-17T09:27:02.420Z,16.50
2019-03-17T09:29:10.109Z,15.57
2019-03-17T09:31:17.633Z,17.07
2019-03-17T09:33:25.232Z,15.17
2019-03-17T09:35:33.838Z,22.67
2019-03-17T09:37:41.443Z,15.03
2019-03-17T09:39:49.040Z,15.67
2019-03-17T09:41:56.605Z,16.70
2019-03-17T09:44:04.175Z,12.93
2019-03-17T09:46:11.669Z,12.37
2019-03-17T09:48:19.539Z,12.50
2019-03-17T09:50:27.772Z,11.63
2019-03-17T09:52:35.430Z,12.97
2019-03-17T09:54:43.054Z,12.17
2019-03-17T09:56:50.671Z,9.40
2019-03-17T09:58:58.494Z,11.33
2019-03-17T10:01:06.124Z,12.43
2019-03-17T10:03:14.756Z,11.07
2019-03-17T10:05:23.561Z,11.47
2019-03-17T10:07:33.605Z,18.60
2019-03-17T10:09:41.053Z,15.13
2019-03-17T10:11:48.761Z,14.80
2019-03-17T10:13:56.353Z,18.57
2019-03-17T10:16:04.336Z,12.00
2019-03-17T10:18:12.448Z,11.00
2019-03-17T10:20:20.271Z,14.50
2019-03-17T10:22:27.842Z,20.70
2019-03-17T10:24:36.626Z,14.43
2019-03-17T10:26:44.300Z,15.50
2019-03-17T10:28:51.867Z,20.97
2019-03-17T10:31:00.097Z,14.37
2019-03-17T10:33:07.627Z,16.40
2019-03-17T10:35:15.367Z,14.07
2019-03-17T10:37:22.929Z,16.30
2019-03-17T10:39:30.756Z,33.70
2019-03-17T10:41:38.216Z,28.93
2019-03-17T10:43:46.021Z,15.77
2019-03-17T10:45:53.674Z,18.10
2019-03-17T10:48:01.550Z,12.80
2019-03-17T10:50:12.531Z,21.37
2019-03-17T10:52:20.015Z,14.90
2019-03-17T10:54:27.498Z,15.60
2019-03-17T10:56:34.979Z,14.57
2019-03-17T10:58:42.522Z,15.03
2019-03-17T11:00:49.977Z,16.87
2019-03-17T11:02:58.348Z,10.47
2019-03-17T11:05:07.707Z,15.90
2019-03-17T11:07:15.278Z,13.90
2019-03-17T11:09:25.387Z,11.60
2019-03-17T11:11:32.018Z,9.57
2019-03-17T11:13:39.568Z,10.57
2019-03-17T11:15:47.073Z,12.03
2019-03-17T11:17:54.511Z,17.77
2019-03-17T11:20:01.965Z,11.17
2019-03-17T11:22:09.350Z,7.77
2019-03-17T11:24:16.891Z,14.37
2019-03-17T11:26:25.519Z,7.43
2019-03-17T11:28:33.253Z,7.77
2019-03-17T11:30:40.669Z,7.03
2019-03-17T11:32:48.250Z,6.03
2019-03-17T11:34:55.675Z,9.30
2019-03-17T11:37:03.717Z,7.83
2019-03-17T11:39:11.107Z,7.53
2019-03-17T11:41:18.814Z,7.83
2019-03-17T11:43:26.386Z,7.57
2019-03-17T11:45:34.294Z,6.27
2019-03-17T11:47:41.964Z,6.57
2019-03-17T11:49:49.647Z,5.53
2019-03-17T11:51:57.221Z,6.17
2019-03-17T11:54:04.799Z,7.07
2019-03-17T11:56:12.231Z,6.93
2019-03-17T11:58:19.799Z,6.70
2019-03-17T12:00:27.688Z,6.53
2019-03-17T12:02:35.156Z,26.43
2019-03-17T12:04:42.753Z,7.70
2019-03-17T12:06:50.674Z,6.87
2019-03-17T12:08:58.076Z,4.60
2019-03-17T12:11:05.647Z,7.97
2019-03-17T12:13:16.319Z,5.63
2019-03-17T12:15:24.207Z,7.27
2019-03-17T12:17:31.862Z,7.73
2019-03-17T12:19:39.993Z,10.47
2019-03-17T12:21:47.655Z,6.97
2019-03-17T12:23:55.164Z,5.50
2019-03-17T12:26:02.946Z,7.17
2019-03-17T12:28:10.434Z,7.93
2019-03-17T12:30:23.359Z,7.23
2019-03-17T12:32:30.771Z,7.67
2019-03-17T12:34:38.135Z,10.47
2019-03-17T12:36:45.515Z,8.60
2019-03-17T12:38:52.929Z,8.27
2019-03-17T12:41:00.423Z,11.30
2019-03-17T12:43:08.116Z,8.07
2019-03-17T12:45:16.401Z,10.33
2019-03-17T12:47:24.115Z,10.27
2019-03-17T12:49:31.736Z,11.30
2019-03-17T12:51:39.135Z,27.03
2019-03-17T12:53:47.048Z,14.47
2019-03-17T12:55:55.647Z,60.97
2019-03-17T12:58:03.427Z,46.40
2019-03-17T13:00:14.819Z,29.27
2019-03-17T13:02:22.430Z,97.93
2019-03-17T13:04:30.670Z,101.80
2019-03-17T13:06:39.445Z,8.77
2019-03-17T13:08:47.349Z,14.07
2019-03-17T13:10:55.223Z,9.93
2019-03-17T13:13:03.170Z,12.93
2019-03-17T13:15:11.673Z,18.00
2019-03-17T13:17:22.334Z,7.13
2019-03-17T13:19:30.536Z,7.00
2019-03-17T13:21:38.602Z,7.63
2019-03-17T13:23:46.441Z,10.80
2019-03-17T13:25:54.402Z,13.70
2019-03-17T13:28:02.837Z,10.23
2019-03-17T13:30:12.807Z,13.20
2019-03-17T13:32:21.682Z,15.37
2019-03-17T13:34:29.814Z,7.47
2019-03-17T13:36:37.440Z,22.33
2019-03-17T13:38:45.065Z,12.53
2019-03-17T13:40:52.593Z,29.70
2019-03-17T13:43:00.217Z,9.43
2019-03-17T13:45:08.774Z,9.43
2019-03-17T13:47:16.538Z,10.17
2019-03-17T13:49:27.329Z,8.03
2019-03-17T13:51:34.996Z,64.80
2019-03-17T13:53:42.421Z,36.97
2019-03-17T13:55:50.298Z,134.13
2019-03-17T13:57:59.032Z,10.57
2019-03-17T14:00:08.156Z,118.90
2019-03-17T14:02:15.846Z,69.13
2019-03-17T14:04:23.787Z,6.50
2019-03-17T14:06:31.419Z,93.60
2019-03-17T14:08:39.419Z,8.00
2019-03-17T14:10:47.647Z,82.23
2019-03-17T14:12:55.736Z,7.13
2019-03-17T14:15:04.080Z,25.60
2019-03-17T14:17:11.893Z,6.87
2019-03-17T14:19:19.880Z,8.27
2019-03-17T14:21:27.710Z,12.53
2019-03-17T14:23:35.879Z,7.17
2019-03-17T14:25:43.563Z,13.90
2019-03-17T14:27:51.150Z,10.70
2019-03-17T14:29:58.671Z,13.00
2019-03-17T14:32:06.457Z,32.17
2019-03-17T14:34:13.972Z,58.80
2019-03-17T14:36:21.851Z,32.57
2019-03-17T14:38:29.596Z,63.40
2019-03-17T14:40:39.254Z,50.63
2019-03-17T14:42:47.967Z,38.33
2019-03-17T14:44:56.026Z,174.07
2019-03-17T14:47:03.878Z,8.37
2019-03-17T14:49:15.262Z,14.80
2019-03-17T14:51:23.294Z,8.70
2019-03-17T14:53:31.078Z,7.67
2019-03-17T14:55:39.200Z,18.87
2019-03-17T14:57:47.073Z,12.50
2019-03-17T14:59:54.669Z,6.67
2019-03-17T15:02:02.313Z,7.23
2019-03-17T15:04:09.933Z,6.33
2019-03-17T15:06:18.618Z,7.83
2019-03-17T15:08:31.123Z,5.87
2019-03-17T15:10:43.559Z,6.23
2019-03-17T15:12:53.528Z,6.73
2019-03-17T15:15:01.159Z,6.93
2019-03-17T15:17:08.776Z,6.67
2019-03-17T15:19:16.513Z,5.37
2019-03-17T15:21:24.844Z,6.57
2019-03-17T15:23:32.324Z,5.20
2019-03-17T15:25:39.906Z,6.97
2019-03-17T15:27:47.895Z,7.33
2019-03-17T15:30:00.485Z,7.53
2019-03-17T15:32:09.673Z,17.90
2019-03-17T15:34:17.431Z,15.47
2019-03-17T15:36:24.997Z,10.93
2019-03-17T15:38:32.690Z,14.37
2019-03-17T15:40:41.041Z,15.37
2019-03-17T15:42:48.925Z,13.77
2019-03-17T15:44:56.761Z,10.40
2019-03-17T15:47:04.802Z,11.10
2019-03-17T15:49:12.474Z,10.93
2019-03-17T15:51:20.962Z,9.37
2019-03-17T15:53:28.714Z,11.60
2019-03-17T15:55:36.320Z,17.93
2019-03-17T15:57:43.955Z,10.67
2019-03-17T15:59:51.564Z,12.27
2019-03-17T16:01:59.043Z,16.17
2019-03-17T16:04:06.857Z,9.70
2019-03-17T16:06:14.699Z,8.87
2019-03-17T16:08:22.189Z,16.20
2019-03-17T16:10:29.843Z,26.33
2019-03-17T16:12:37.681Z,28.77
2019-03-17T16:14:46.254Z,31.57
2019-03-17T16:16:53.695Z,39.23
2019-03-17T16:19:01.410Z,43.70
2019-03-17T16:21:09.212Z,35.17
2019-03-17T16:23:17.334Z,24.83
2019-03-17T16:25:24.909Z,42.13
2019-03-17T16:27:32.753Z,38.43
2019-03-17T16:29:40.424Z,39.17
2019-03-17T16:31:48.818Z,38.50
2019-03-17T16:33:56.474Z,36.47
2019-03-17T16:36:04.083Z,33.23
2019-03-17T16:38:11.959Z,39.67
2019-03-17T16:40:22.350Z,38.27
2019-03-17T16:42:30.112Z,33.40
2019-03-17T16:44:38.090Z,27.03
2019-03-17T16:46:46.095Z,25.70
2019-03-17T16:48:53.693Z,15.83
2019-03-17T16:51:01.697Z,12.97
2019-03-17T16:53:09.817Z,10.10
2019-03-17T16:55:17.749Z,14.43
2019-03-17T16:57:25.266Z,15.27
2019-03-17T16:59:33.369Z,19.80
2019-03-17T17:01:41.049Z,14.03
2019-03-17T17:03:49.037Z,10.17
2019-03-17T17:05:56.927Z,8.83
2019-03-17T17:08:06.977Z,11.33
2019-03-17T17:12:46.189Z,12.80
2019-03-17T17:14:53.889Z,15.87
2019-03-17T17:17:02.560Z,13.10
2019-03-17T17:19:11.135Z,16.83
2019-03-17T17:21:19.018Z,18.63
2019-03-17T17:23:28.199Z,23.50
2019-03-17T17:25:36.528Z,17.93
2019-03-17T17:27:45.139Z,18.33
2019-03-17T17:29:53.532Z,20.87
2019-03-17T17:32:02.281Z,21.80
2019-03-17T17:34:10.512Z,15.23
2019-03-17T17:36:18.497Z,17.07
2019-03-17T17:38:26.176Z,21.27
2019-03-17T17:40:33.906Z,16.97
2019-03-17T17:42:42.419Z,14.87
2019-03-17T17:44:50.033Z,15.00
2019-03-17T17:46:58.604Z,15.47
2019-03-17T17:49:07.036Z,18.07
2019-03-17T17:51:16.427Z,16.57
2019-03-17T17:53:26.024Z,22.17
2019-03-17T17:55:34.057Z,21.30
2019-03-17T17:57:45.993Z,33.87
2019-03-17T17:59:54.058Z,50.60
2019-03-17T18:02:02.016Z,53.20
2019-03-17T18:04:11.255Z,54.87
2019-03-17T18:06:19.373Z,42.80
2019-03-17T18:08:27.019Z,39.43
2019-03-17T18:10:34.999Z,40.93
2019-03-17T18:12:43.278Z,38.03
2019-03-17T18:14:51.134Z,42.27
2019-03-17T18:16:59.277Z,44.10
2019-03-17T18:19:07.322Z,53.23
2019-03-17T18:21:15.253Z,44.63
2019-03-17T18:23:23.254Z,40.47
2019-03-17T18:25:31.219Z,34.30
2019-03-17T18:27:39.201Z,29.23
2019-03-17T18:29:47.065Z,28.03
2019-03-17T18:31:56.272Z,30.40
2019-03-17T18:34:04.495Z,40.47
2019-03-17T18:36:13.559Z,34.00
2019-03-17T18:38:22.545Z,40.93
2019-03-17T18:40:30.815Z,40.27
2019-03-17T18:42:40.394Z,48.47
2019-03-17T18:44:48.852Z,59.17
2019-03-17T18:46:57.898Z,54.13
2019-03-17T18:49:06.256Z,49.03
2019-03-17T18:51:20.732Z,51.03
2019-03-17T18:53:26.599Z,50.40
2019-03-17T18:55:35.574Z,44.53
2019-03-17T18:57:48.541Z,51.80
2019-03-17T19:00:01.207Z,53.47
2019-03-17T19:02:11.553Z,57.13
2019-03-17T19:04:22.370Z,57.73
2019-03-17T19:06:30.841Z,66.10
2019-03-17T19:08:42.002Z,67.13
2019-03-17T19:10:50.326Z,61.47
2019-03-17T19:12:58.324Z,55.63
2019-03-17T19:15:07.644Z,53.63
2019-03-17T19:17:15.717Z,56.00
2019-03-17T19:19:25.513Z,61.13
2019-03-17T19:21:33.808Z,58.17
2019-03-17T19:23:42.880Z,73.87
2019-03-17T19:25:51.127Z,76.07
2019-03-17T19:27:59.157Z,77.73
2019-03-17T19:30:08.249Z,60.77
2019-03-17T19:32:20.035Z,40.53
2019-03-17T19:34:27.897Z,32.67
2019-03-17T19:36:36.220Z,31.73
2019-03-17T19:38:45.355Z,30.30
2019-03-17T19:40:53.055Z,26.67
2019-03-17T19:43:01.114Z,33.23
2019-03-17T19:45:09.463Z,35.37
2019-03-17T19:47:17.032Z,40.83
2019-03-17T19:49:24.945Z,53.77
2019-03-17T19:51:33.369Z,61.70
2019-03-17T19:53:41.403Z,50.03
2019-03-17T19:55:49.597Z,59.90
2019-03-17T19:57:57.857Z,65.30
2019-03-17T20:00:06.236Z,63.27
2019-03-17T20:02:14.167Z,53.83
2019-03-17T20:04:30.809Z,64.33
2019-03-17T20:06:32.097Z,49.77
2019-03-17T20:08:40.489Z,55.47
2019-03-17T20:10:48.472Z,77.17
2019-03-17T20:12:56.386Z,59.27
2019-03-17T20:15:03.968Z,58.33
2019-03-17T20:17:12.208Z,56.37
2019-03-17T20:19:20.148Z,49.30
2019-03-17T20:21:28.020Z,54.83
2019-03-17T20:23:54.267Z,52.60
2019-03-17T20:26:01.918Z,58.93
2019-03-17T20:28:09.844Z,65.57
2019-03-17T20:30:18.530Z,50.83
2019-03-17T20:32:28.141Z,66.30
2019-03-17T20:34:36.094Z,58.23
2019-03-17T20:36:44.019Z,59.80
2019-03-17T20:38:51.910Z,69.60
2019-03-17T20:41:00.695Z,133.30
2019-03-17T20:43:20.043Z,128.23
2019-03-17T20:45:20.372Z,159.03
2019-03-17T20:47:28.468Z,150.67
2019-03-17T20:49:36.198Z,144.63
2019-03-17T20:51:44.147Z,139.30
2019-03-17T20:53:51.912Z,141.20
2019-03-17T20:55:59.511Z,149.47
2019-03-17T20:58:07.129Z,200.67
2019-03-17T21:00:16.414Z,170.30
2019-03-17T21:02:23.907Z,216.03
2019-03-17T21:04:31.844Z,249.23
2019-03-17T21:06:39.437Z,203.73
2019-03-17T21:08:47.084Z,196.13
2019-03-17T21:10:54.606Z,180.20
2019-03-17T21:13:02.129Z,157.73
2019-03-17T21:15:11.981Z,148.30
2019-03-17T21:17:19.570Z,152.90
2019-03-17T21:19:27.424Z,148.20
2019-03-17T21:21:35.246Z,146.90
2019-03-17T21:23:42.812Z,143.53
2019-03-17T21:25:50.629Z,145.53
2019-03-17T21:27:58.415Z,138.63
2019-03-17T21:30:08.703Z,131.47
2019-03-17T21:32:16.339Z,130.93
2019-03-17T21:34:24.034Z,122.37
2019-03-17T21:36:31.716Z,110.37
2019-03-17T21:38:39.543Z,93.87
2019-03-17T21:41:01.577Z,97.87
2019-03-17T21:42:57.447Z,120.57
2019-03-17T21:45:05.430Z,110.00
2019-03-17T21:47:13.264Z,104.67
2019-03-17T21:49:21.157Z,99.73
2019-03-17T21:51:28.841Z,101.67
2019-03-17T21:53:36.968Z,105.43
2019-03-17T21:55:44.561Z,104.37
2019-03-17T21:57:52.278Z,93.60
2019-03-17T22:00:00.398Z,104.03
2019-03-17T22:02:12.940Z,85.03
2019-03-17T22:04:17.900Z,87.37
2019-03-17T22:06:25.469Z,84.70
2019-03-17T22:08:33.111Z,53.77
2019-03-17T22:10:40.712Z,26.80
2019-03-17T22:12:48.674Z,30.47
2019-03-17T22:14:56.088Z,35.00
2019-03-17T22:17:03.762Z,47.00
2019-03-17T22:19:11.366Z,43.07
2019-03-17T22:21:18.933Z,41.57
2019-03-17T22:23:26.451Z,44.93
2019-03-17T22:25:34.168Z,51.63
2019-03-17T22:27:41.712Z,45.03
2019-03-17T22:29:49.210Z,53.93
2019-03-17T22:31:56.688Z,36.93
2019-03-17T22:34:04.166Z,37.00
2019-03-17T22:36:11.804Z,38.40
2019-03-17T22:38:19.235Z,32.77
2019-03-17T22:40:26.637Z,27.17
2019-03-17T22:42:34.028Z,23.73
2019-03-17T22:44:41.403Z,22.57
2019-03-17T22:46:48.788Z,24.27
2019-03-17T22:48:56.759Z,15.13
2019-03-17T22:51:04.248Z,11.60
2019-03-17T22:53:11.576Z,8.67
2019-03-17T22:55:19.133Z,10.97
2019-03-17T22:57:26.563Z,5.43
2019-03-17T22:59:33.817Z,6.43
2019-03-17T23:01:41.324Z,4.90
2019-03-17T23:03:50.219Z,5.30
2019-03-17T23:05:57.727Z,4.80
2019-03-17T23:08:05.349Z,9.57
2019-03-17T23:10:15.590Z,7.10
2019-03-17T23:12:23.264Z,9.27
2019-03-17T23:14:36.694Z,3.57
2019-03-17T23:16:39.991Z,3.83
2019-03-17T23:18:47.497Z,3.73
2019-03-17T23:20:54.973Z,3.33
2019-03-17T23:23:02.513Z,3.80
2019-03-17T23:25:10.602Z,3.83
2019-03-17T23:27:18.101Z,2.83
2019-03-17T23:29:25.763Z,2.50
2019-03-17T23:31:34.054Z,6.07
2019-03-17T23:33:41.613Z,3.63
2019-03-17T23:35:49.073Z,2.80
2019-03-17T23:37:56.527Z,2.57
2019-03-17T23:40:04.114Z,3.00
2019-03-17T23:42:11.527Z,3.30
2019-03-17T23:44:19.025Z,2.93
2019-03-17T23:46:26.497Z,2.63
2019-03-17T23:48:33.824Z,1.80
2019-03-17T23:50:41.191Z,3.93
2019-03-17T23:52:48.473Z,2.57
2019-03-17T23:54:55.820Z,3.20
2019-03-17T23:57:03.199Z,3.73
2019-03-17T23:59:10.536Z,2.63
